Time;durP1;ratioP1;P1;durP2;ratioP2;P2;SDS_P1;SDS_P2;PMS_P1;PMS_P2;Temp;Humidity;BMP_temperature;BMP_pressure;BME280_temperature;BME280_humidity;BME280_pressure;Samples;Min_cycle;Max_cycle;Signal;HPM_P1;HPM_P2
2023/12/22 00:00:15;;;;;;;9.50;2.88;;;6.00;99.90;;;;;;5067627;28;20203;-72
2023/12/22 00:02:43;;;;;;;12.35;2.92;;;6.10;99.90;;;;;;5066906;28;20215;-70
2023/12/22 00:05:10;;;;;;;7.18;2.58;;;6.10;99.90;;;;;;5072319;28;20263;-72
2023/12/22 00:07:39;;;;;;;6.07;2.35;;;6.10;99.90;;;;;;5069303;28;20312;-71
2023/12/22 00:10:06;;;;;;;9.18;2.90;;;6.10;99.90;;;;;;5067505;28;20278;-72
2023/12/22 00:12:33;;;;;;;15.63;2.40;;;6.10;99.90;;;;;;5071581;28;20210;-74
2023/12/22 00:15:00;;;;;;;27.45;5.10;;;6.00;99.90;;;;;;5065943;28;20239;-72
2023/12/22 00:17:27;;;;;;;9.25;2.60;;;6.00;99.90;;;;;;5074034;28;20258;-71
2023/12/22 00:19:56;;;;;;;13.75;2.60;;;6.00;99.90;;;;;;5069592;28;20557;-73
2023/12/22 00:22:24;;;;;;;7.65;1.90;;;6.10;99.90;;;;;;5066949;28;20668;-72
2023/12/22 00:24:53;;;;;;;8.73;2.40;;;6.10;99.90;;;;;;5067252;28;20638;-72
2023/12/22 00:27:20;;;;;;;9.50;2.22;;;6.00;99.90;;;;;;5067174;28;20259;-71
2023/12/22 00:29:47;;;;;;;14.82;2.30;;;6.00;99.90;;;;;;5069290;28;20653;-72
2023/12/22 00:32:14;;;;;;;16.98;2.58;;;6.00;99.90;;;;;;5068391;28;20239;-70
2023/12/22 00:34:41;;;;;;;6.10;3.40;;;5.90;99.90;;;;;;5072936;28;20235;-71
2023/12/22 00:37:08;;;;;;;8.02;2.60;;;5.90;99.90;;;;;;5068614;28;20277;-73
2023/12/22 00:39:34;;;;;;;6.43;2.67;;;5.90;99.90;;;;;;5073481;28;20235;-72
2023/12/22 00:42:04;;;;;;;7.68;2.47;;;5.90;99.90;;;;;;5073409;28;20273;-73
2023/12/22 00:44:31;;;;;;;5.22;2.05;;;5.80;99.90;;;;;;5073199;28;20639;-73
2023/12/22 00:46:58;;;;;;;8.98;2.00;;;5.90;99.90;;;;;;5073312;28;20227;-71
2023/12/22 00:49:27;;;;;;;7.30;2.35;;;5.90;99.90;;;;;;5067016;28;20651;-73
2023/12/22 00:51:54;;;;;;;6.53;1.85;;;5.80;99.90;;;;;;5073035;28;20231;-73
2023/12/22 00:54:20;;;;;;;7.07;2.03;;;5.90;99.90;;;;;;5073234;28;20283;-70
2023/12/22 00:56:47;;;;;;;4.88;2.97;;;5.80;99.90;;;;;;5071594;28;20223;-72
2023/12/22 00:59:16;;;;;;;6.28;1.88;;;5.80;99.90;;;;;;5065215;28;20257;-72
2023/12/22 01:01:44;;;;;;;13.50;2.22;;;5.80;99.90;;;;;;5071096;28;20287;-69
2023/12/22 01:04:11;;;;;;;13.52;2.10;;;5.80;99.90;;;;;;5068858;28;20680;-69
2023/12/22 01:06:38;;;;;;;6.25;2.72;;;5.90;99.90;;;;;;5073449;28;20245;-69
2023/12/22 01:09:05;;;;;;;6.68;2.95;;;5.90;99.90;;;;;;5070981;28;20291;-70
2023/12/22 01:11:32;;;;;;;8.70;2.15;;;5.90;99.90;;;;;;5071559;28;20556;-70
2023/12/22 01:13:59;;;;;;;6.68;2.40;;;5.90;99.90;;;;;;5073218;28;20226;-72
2023/12/22 01:16:28;;;;;;;7.93;2.90;;;5.90;99.90;;;;;;5071400;28;20242;-71
2023/12/22 01:18:55;;;;;;;12.00;3.30;;;5.90;99.90;;;;;;5072786;28;20285;-73
2023/12/22 01:21:22;;;;;;;11.65;3.13;;;5.80;99.90;;;;;;5069888;28;20238;-71
2023/12/22 01:23:50;;;;;;;8.80;3.13;;;5.80;99.90;;;;;;5069132;28;20262;-72
2023/12/22 01:26:17;;;;;;;12.05;3.20;;;5.70;99.90;;;;;;5065203;28;20689;-69
2023/12/22 01:31:12;;;;;;;8.07;3.05;;;5.60;99.90;;;;;;5052949;28;20692;-72
2023/12/22 01:33:40;;;;;;;17.70;2.92;;;5.60;99.90;;;;;;5043684;28;20248;-73
2023/12/22 01:36:07;;;;;;;11.65;3.15;;;5.60;99.90;;;;;;5049038;28;20289;-72
2023/12/22 01:38:34;;;;;;;11.23;4.05;;;5.60;99.90;;;;;;5044227;28;20209;-72
2023/12/22 01:41:01;;;;;;;12.02;3.88;;;5.70;99.90;;;;;;5050395;28;20243;-71
2023/12/22 01:43:28;;;;;;;7.20;2.53;;;5.70;99.90;;;;;;5049234;28;20689;-71
2023/12/22 01:45:59;;;;;;;9.32;2.25;;;5.70;99.90;;;;;;5043922;28;20271;-71
2023/12/22 01:48:27;;;;;;;8.38;1.98;;;5.70;99.90;;;;;;5049357;28;20622;-72
2023/12/22 01:50:56;;;;;;;12.20;2.35;;;5.70;99.90;;;;;;5043177;28;20254;-71
2023/12/22 01:53:25;;;;;;;6.75;3.40;;;5.70;99.90;;;;;;5050703;28;20648;-71
2023/12/22 01:55:52;;;;;;;5.97;2.88;;;5.70;99.90;;;;;;5049253;28;20192;-72
2023/12/22 01:58:20;;;;;;;13.15;2.65;;;5.80;99.90;;;;;;5051719;28;20269;-73
2023/12/22 02:00:48;;;;;;;8.75;2.15;;;5.80;99.90;;;;;;5046640;28;20304;-72
2023/12/22 02:03:16;;;;;;;6.55;2.20;;;5.90;99.90;;;;;;5046565;28;20293;-70
2023/12/22 02:05:43;;;;;;;9.07;1.92;;;5.90;99.90;;;;;;5047093;28;20349;-70
2023/12/22 02:08:12;;;;;;;6.22;1.50;;;5.90;99.90;;;;;;5046506;28;20223;-70
2023/12/22 02:10:39;;;;;;;8.07;1.67;;;5.90;99.90;;;;;;5045095;28;20216;-73
2023/12/22 02:13:06;;;;;;;7.63;1.90;;;5.80;99.90;;;;;;5051746;28;20231;-71
2023/12/22 02:15:34;;;;;;;5.65;1.95;;;5.80;99.90;;;;;;5050789;28;20567;-72
2023/12/22 02:18:08;;;;;;;5.95;0.90;;;5.70;99.90;;;;;;5051132;28;20224;-71
2023/12/22 02:20:35;;;;;;;2.20;1.23;;;5.60;99.90;;;;;;5052345;28;20254;-72
2023/12/22 02:23:04;;;;;;;1.75;0.95;;;5.60;99.90;;;;;;5051832;28;20297;-70
2023/12/22 02:25:31;;;;;;;2.80;1.45;;;5.50;99.90;;;;;;5051216;28;20224;-70
2023/12/22 02:28:02;;;;;;;4.93;1.70;;;5.50;99.90;;;;;;5051303;28;20266;-72
2023/12/22 02:30:34;;;;;;;5.65;1.58;;;5.60;99.90;;;;;;5052061;28;20239;-72
2023/12/22 02:33:05;;;;;;;9.95;1.20;;;5.50;99.90;;;;;;5051752;28;20212;-71
2023/12/22 02:35:34;;;;;;;3.13;1.15;;;5.50;99.90;;;;;;5048474;28;20562;-72
2023/12/22 02:38:05;;;;;;;2.33;1.10;;;5.40;99.90;;;;;;5050615;28;20678;-72
2023/12/22 02:40:34;;;;;;;4.30;1.65;;;5.40;99.90;;;;;;5050104;28;20227;-73
2023/12/22 02:43:01;;;;;;;9.48;1.23;;;5.30;99.90;;;;;;5051211;28;20226;-72
2023/12/22 02:45:30;;;;;;;3.80;1.58;;;5.30;99.90;;;;;;5050219;28;20258;-75
2023/12/22 02:47:57;;;;;;;8.95;1.70;;;5.30;99.90;;;;;;5051881;28;20270;-73
2023/12/22 02:50:24;;;;;;;10.35;2.65;;;5.30;99.90;;;;;;5051580;28;20219;-71
2023/12/22 02:52:51;;;;;;;10.20;1.60;;;5.30;99.90;;;;;;5049856;28;20273;-73
2023/12/22 02:55:19;;;;;;;5.43;2.50;;;5.20;99.90;;;;;;5045133;28;20265;-72
2023/12/22 02:57:46;;;;;;;15.10;2.38;;;5.20;99.90;;;;;;5050522;28;20228;-71
2023/12/22 03:00:14;;;;;;;7.13;2.42;;;5.20;99.90;;;;;;5047672;28;20204;-73
2023/12/22 03:02:41;;;;;;;8.57;2.75;;;5.20;99.90;;;;;;5041188;28;20250;-72
2023/12/22 03:05:08;;;;;;;10.27;3.25;;;5.20;99.90;;;;;;5050255;28;20200;-70
2023/12/22 03:07:35;;;;;;;8.93;2.17;;;5.20;99.90;;;;;;5051705;28;20224;-71
2023/12/22 03:10:02;;;;;;;10.45;3.65;;;5.20;99.90;;;;;;5048456;28;20204;-72
2023/12/22 03:12:30;;;;;;;10.02;2.83;;;5.20;99.90;;;;;;5052087;28;20201;-72
2023/12/22 03:14:57;;;;;;;10.15;2.90;;;5.20;99.90;;;;;;5046843;28;20323;-69
2023/12/22 03:17:24;;;;;;;11.25;2.35;;;5.30;99.90;;;;;;5047454;28;20301;-70
2023/12/22 03:19:51;;;;;;;9.02;3.03;;;5.30;99.90;;;;;;5046027;28;20204;-72
2023/12/22 03:22:19;;;;;;;15.70;2.75;;;5.30;99.90;;;;;;5038715;28;20204;-71
2023/12/22 03:24:46;;;;;;;8.80;2.60;;;5.40;99.90;;;;;;5045296;28;20245;-72
2023/12/22 03:27:16;;;;;;;6.40;2.78;;;5.50;99.90;;;;;;5048652;28;20289;-72
2023/12/22 03:29:45;;;;;;;10.13;3.25;;;5.60;99.90;;;;;;5054583;28;20219;-71
2023/12/22 03:32:12;;;;;;;14.45;3.97;;;5.70;99.90;;;;;;5046066;28;20213;-74
2023/12/22 03:34:39;;;;;;;11.30;3.13;;;5.80;99.90;;;;;;5050825;28;20666;-72
2023/12/22 03:37:06;;;;;;;10.57;2.78;;;5.80;99.90;;;;;;5054064;28;20289;-70
2023/12/22 03:39:33;;;;;;;19.17;3.63;;;5.70;99.90;;;;;;5053823;28;20684;-73
2023/12/22 03:42:00;;;;;;;16.40;2.55;;;5.60;99.90;;;;;;5052827;28;20208;-70
2023/12/22 03:44:28;;;;;;;8.93;2.85;;;5.50;99.90;;;;;;5055575;28;20200;-70
2023/12/22 03:46:57;;;;;;;12.57;3.20;;;5.40;99.90;;;;;;5053954;28;20232;-72
2023/12/22 03:49:24;;;;;;;10.45;2.67;;;5.30;99.90;;;;;;5054944;28;20211;-73
2023/12/22 03:51:51;;;;;;;8.13;2.22;;;5.20;99.90;;;;;;5052884;28;20203;-72
2023/12/22 03:54:18;;;;;;;9.98;1.70;;;5.20;99.90;;;;;;5051682;28;20196;-72
2023/12/22 03:56:45;;;;;;;9.63;2.65;;;5.10;99.90;;;;;;5053690;28;20234;-76
2023/12/22 03:59:13;;;;;;;4.82;1.50;;;5.10;99.90;;;;;;5055124;28;20235;-72
2023/12/22 04:01:40;;;;;;;4.63;1.48;;;5.10;99.90;;;;;;5054957;28;20207;-72
2023/12/22 04:04:08;;;;;;;4.45;1.95;;;5.10;99.90;;;;;;5057316;28;20204;-69
2023/12/22 04:06:39;;;;;;;4.65;1.92;;;5.10;99.90;;;;;;5054701;28;20224;-68
2023/12/22 04:09:06;;;;;;;6.43;2.60;;;5.20;99.90;;;;;;5054347;28;20204;-72
2023/12/22 04:11:34;;;;;;;7.85;1.70;;;5.20;99.90;;;;;;5066439;28;20200;-68
2023/12/22 04:14:01;;;;;;;6.60;1.73;;;5.30;99.90;;;;;;5061469;28;20549;-70
2023/12/22 04:16:28;;;;;;;7.07;1.70;;;5.30;99.90;;;;;;5053203;28;20739;-70
2023/12/22 04:18:55;;;;;;;12.15;2.95;;;5.40;99.90;;;;;;5054364;28;20598;-71
2023/12/22 04:21:24;;;;;;;7.65;2.15;;;5.50;99.90;;;;;;5055748;28;20208;-71
2023/12/22 04:23:51;;;;;;;9.25;2.42;;;5.60;99.90;;;;;;5055826;28;20249;-71
2023/12/22 04:26:18;;;;;;;10.15;2.70;;;5.60;99.90;;;;;;5053126;28;20212;-70
2023/12/22 04:28:45;;;;;;;7.40;2.45;;;5.70;99.90;;;;;;5054401;28;20204;-71
2023/12/22 04:31:12;;;;;;;17.98;2.50;;;5.80;99.90;;;;;;5054186;28;20491;-70
2023/12/22 04:33:41;;;;;;;14.60;2.83;;;5.80;99.90;;;;;;5044401;28;20205;-70
2023/12/22 04:36:08;;;;;;;11.88;2.80;;;5.90;99.90;;;;;;5051104;28;20212;-72
2023/12/22 04:38:36;;;;;;;13.43;2.88;;;5.90;99.90;;;;;;5047414;28;20196;-71
2023/12/22 04:41:03;;;;;;;14.60;2.80;;;6.00;99.90;;;;;;5051891;28;20204;-72
2023/12/22 04:43:30;;;;;;;10.60;2.58;;;5.90;99.90;;;;;;5052645;28;20711;-72
2023/12/22 04:45:57;;;;;;;13.00;2.72;;;5.70;99.90;;;;;;5042930;28;20224;-71
2023/12/22 04:48:25;;;;;;;10.98;3.05;;;5.70;99.90;;;;;;5052424;28;20228;-72
2023/12/22 04:50:52;;;;;;;13.73;4.25;;;5.60;99.90;;;;;;5053552;28;20208;-72
2023/12/22 04:53:19;;;;;;;10.80;3.50;;;5.60;99.90;;;;;;5053641;28;20200;-72
2023/12/22 04:55:48;;;;;;;23.70;4.97;;;5.60;99.90;;;;;;5052343;28;20212;-74
2023/12/22 04:58:15;;;;;;;22.23;3.65;;;5.40;99.90;;;;;;5055983;28;20710;-73
2023/12/22 05:00:42;;;;;;;12.82;4.22;;;5.40;99.90;;;;;;5053993;28;20201;-70
2023/12/22 05:03:09;;;;;;;11.55;4.03;;;5.40;99.90;;;;;;5053250;28;20200;-71
2023/12/22 05:05:36;;;;;;;12.10;3.55;;;5.40;99.90;;;;;;5054937;28;20215;-72
2023/12/22 05:08:03;;;;;;;11.70;3.80;;;5.30;99.90;;;;;;5053376;28;20656;-70
2023/12/22 05:10:30;;;;;;;11.57;2.95;;;5.40;99.90;;;;;;5054050;28;20204;-71
2023/12/22 05:12:58;;;;;;;17.63;4.30;;;5.40;99.90;;;;;;5053716;28;20287;-72
2023/12/22 05:15:26;;;;;;;12.85;4.22;;;5.50;99.90;;;;;;5053223;28;20204;-74
2023/12/22 05:17:54;;;;;;;11.73;3.03;;;5.60;99.90;;;;;;5053490;28;20216;-73
2023/12/22 05:20:21;;;;;;;11.60;2.88;;;5.60;99.90;;;;;;5045661;28;20196;-73
2023/12/22 05:22:47;;;;;;;19.77;4.45;;;5.60;99.90;;;;;;5053483;28;20552;-73
2023/12/22 05:25:15;;;;;;;11.95;2.42;;;5.60;99.90;;;;;;5052150;28;20250;-71
2023/12/22 05:27:43;;;;;;;6.53;2.42;;;5.70;99.90;;;;;;5047434;28;20681;-72
2023/12/22 05:30:14;;;;;;;10.75;2.40;;;5.70;99.90;;;;;;5051035;28;20618;-70
2023/12/22 05:32:43;;;;;;;14.30;3.03;;;5.80;99.90;;;;;;5048516;28;20207;-74
2023/12/22 05:35:11;;;;;;;10.95;3.33;;;5.70;99.90;;;;;;5044332;28;20279;-73
2023/12/22 05:37:38;;;;;;;6.55;2.40;;;5.80;99.90;;;;;;5053288;28;20674;-72
2023/12/22 05:40:06;;;;;;;10.57;2.97;;;5.80;99.90;;;;;;5052582;28;20216;-70
2023/12/22 05:42:33;;;;;;;5.65;1.88;;;5.70;99.90;;;;;;5050824;28;20208;-71
2023/12/22 05:45:00;;;;;;;8.75;1.98;;;5.70;99.90;;;;;;5051998;28;20227;-74
2023/12/22 05:47:29;;;;;;;13.88;2.13;;;5.70;99.90;;;;;;5039211;28;20228;-73
2023/12/22 05:49:55;;;;;;;12.73;2.95;;;5.70;99.90;;;;;;5050099;28;20204;-73
2023/12/22 05:52:22;;;;;;;12.68;4.32;;;5.70;99.90;;;;;;5050594;28;20200;-72
2023/12/22 05:54:50;;;;;;;8.13;2.47;;;5.70;99.90;;;;;;5051083;28;20203;-73
2023/12/22 05:57:16;;;;;;;7.78;2.75;;;5.60;99.90;;;;;;5051336;28;20285;-72
2023/12/22 05:59:43;;;;;;;4.30;1.85;;;5.60;99.90;;;;;;5051713;28;20722;-70
2023/12/22 06:02:10;;;;;;;3.40;1.73;;;5.50;99.90;;;;;;5049740;28;20242;-72
2023/12/22 06:04:39;;;;;;;8.88;1.48;;;5.40;99.90;;;;;;5047159;28;20704;-71
2023/12/22 06:07:06;;;;;;;3.72;1.77;;;5.40;99.90;;;;;;5048954;28;20267;-70
2023/12/22 06:09:33;;;;;;;5.50;1.60;;;5.40;99.90;;;;;;5045769;28;20569;-69
2023/12/22 06:12:00;;;;;;;10.88;2.30;;;5.40;99.90;;;;;;5049077;28;20592;-72
2023/12/22 06:14:27;;;;;;;4.65;2.00;;;5.50;99.90;;;;;;5048659;28;20211;-72
2023/12/22 06:16:56;;;;;;;10.15;3.00;;;5.50;99.90;;;;;;5040674;28;20516;-73
2023/12/22 06:19:24;;;;;;;7.47;3.00;;;5.60;99.90;;;;;;5045099;28;20378;-73
2023/12/22 06:21:53;;;;;;;13.15;2.97;;;5.70;99.90;;;;;;5051022;28;20235;-73
2023/12/22 06:24:20;;;;;;;9.68;2.17;;;5.60;99.90;;;;;;5052107;28;20203;-70
2023/12/22 06:26:47;;;;;;;9.00;2.20;;;5.50;99.90;;;;;;5049758;28;20680;-70
2023/12/22 06:29:14;;;;;;;6.57;1.70;;;5.40;99.90;;;;;;5044012;28;20231;-71
2023/12/22 06:31:41;;;;;;;6.07;3.10;;;5.30;99.90;;;;;;5049834;28;20281;-72
2023/12/22 06:34:08;;;;;;;7.38;2.05;;;5.30;99.90;;;;;;5040107;28;20623;-69
2023/12/22 06:36:35;;;;;;;9.30;2.25;;;5.40;99.90;;;;;;5049858;28;20240;-72
2023/12/22 06:39:04;;;;;;;13.43;3.63;;;5.40;99.90;;;;;;5048128;28;20235;-71
2023/12/22 06:41:32;;;;;;;4.95;4.13;;;5.40;99.90;;;;;;5051478;28;20211;-73
2023/12/22 06:44:00;;;;;;;7.80;3.33;;;5.40;99.90;;;;;;5052060;28;20223;-70
2023/12/22 06:46:28;;;;;;;12.10;2.95;;;5.30;99.90;;;;;;5043014;28;20227;-69
2023/12/22 06:48:56;;;;;;;11.60;2.60;;;5.30;99.90;;;;;;5049518;28;20199;-70
2023/12/22 06:51:26;;;;;;;5.20;3.42;;;5.30;99.90;;;;;;5044611;28;20231;-72
2023/12/22 06:53:55;;;;;;;6.43;2.28;;;5.20;99.90;;;;;;5050667;28;20212;-69
2023/12/22 06:56:24;;;;;;;11.80;3.15;;;5.20;99.90;;;;;;5044503;28;20232;-70
2023/12/22 06:58:52;;;;;;;12.25;2.72;;;5.20;99.90;;;;;;5048273;28;20282;-69
2023/12/22 07:01:21;;;;;;;11.32;3.58;;;5.20;99.90;;;;;;5043910;28;20196;-73
2023/12/22 07:03:48;;;;;;;5.50;2.17;;;5.20;99.90;;;;;;5052830;28;20292;-72
2023/12/22 07:06:16;;;;;;;8.23;2.30;;;5.30;99.90;;;;;;5048808;28;20290;-73
2023/12/22 07:09:13;;;;;;;2.33;1.45;;;5.30;99.90;;;;;;5055925;28;20634;-74
2023/12/22 07:11:43;;;;;;;11.30;2.03;;;5.40;99.90;;;;;;4968657;28;20206;-68
2023/12/22 07:14:10;;;;;;;16.23;4.38;;;5.40;99.90;;;;;;5036730;28;20208;-71
2023/12/22 07:16:38;;;;;;;16.75;2.97;;;5.40;99.90;;;;;;5053781;28;20259;-72
2023/12/22 07:19:06;;;;;;;10.63;2.58;;;5.30;99.90;;;;;;5055392;28;20208;-72
2023/12/22 07:21:33;;;;;;;9.73;3.92;;;5.30;99.90;;;;;;5054820;28;20239;-76
2023/12/22 07:24:00;;;;;;;10.30;3.90;;;5.30;99.90;;;;;;5056576;28;20650;-74
2023/12/22 07:26:27;;;;;;;12.85;4.05;;;5.30;99.90;;;;;;5053550;28;20227;-74
2023/12/22 07:32:18;;;;;;;14.45;4.47;;;5.40;99.90;;;;;;5088929;28;20195;-83
2023/12/22 07:34:52;;;;;;;12.65;4.05;;;5.50;99.90;;;;;;5082495;28;20211;-82
2023/12/22 07:41:31;;;;;;;18.17;5.63;;;5.50;99.90;;;;;;4967294;28;20188;-83
2023/12/22 07:44:02;;;;;;;17.85;4.70;;;5.50;99.90;;;;;;5056604;28;20195;-83
2023/12/22 07:49:16;;;;;;;28.13;6.72;;;5.50;99.90;;;;;;5082498;28;20337;-83
2023/12/22 07:51:44;;;;;;;28.15;7.70;;;5.50;99.90;;;;;;5085136;28;20723;-82
2023/12/22 07:54:20;;;;;;;23.80;4.68;;;5.50;99.90;;;;;;5084679;28;20207;-83
2023/12/22 07:57:22;;;;;;;19.30;3.75;;;5.60;99.90;;;;;;5078171;28;20238;-83
2023/12/22 08:00:11;;;;;;;17.20;5.10;;;5.60;99.90;;;;;;5081827;28;20208;-81
2023/12/22 08:02:43;;;;;;;24.92;6.22;;;5.70;99.90;;;;;;5079040;28;20658;-84
2023/12/22 08:05:18;;;;;;;17.77;5.32;;;5.90;99.90;;;;;;5084338;28;20191;-84
2023/12/22 08:08:01;;;;;;;22.02;4.60;;;5.90;99.90;;;;;;5085183;28;20230;-84
2023/12/22 08:10:34;;;;;;;18.88;5.60;;;6.10;99.90;;;;;;5088072;28;20237;-86
2023/12/22 08:15:53;;;;;;;15.15;4.38;;;6.30;99.90;;;;;;5095556;28;20238;-82
2023/12/22 08:18:22;;;;;;;16.75;4.57;;;6.50;99.90;;;;;;5098105;28;20192;-80
2023/12/22 08:25:03;;;;;;;8.35;2.40;;;6.70;99.90;;;;;;5037063;28;20216;-87
2023/12/22 08:37:39;;;;;;;13.85;3.30;;;6.70;99.90;;;;;;5058387;22;20283;-70
2023/12/22 08:40:07;;;;;;;12.82;4.03;;;6.70;99.90;;;;;;5041019;28;20259;-70
2023/12/22 08:42:34;;;;;;;18.75;4.65;;;6.70;99.90;;;;;;5048082;28;20269;-73
2023/12/22 08:45:02;;;;;;;16.75;5.07;;;6.50;99.90;;;;;;5050325;28;20286;-73
2023/12/22 08:47:29;;;;;;;19.63;5.93;;;6.40;99.90;;;;;;5046982;28;20279;-70
2023/12/22 08:49:56;;;;;;;16.95;5.22;;;6.40;99.90;;;;;;5044124;28;20200;-72
2023/12/22 08:52:23;;;;;;;26.70;6.15;;;6.40;99.90;;;;;;5053225;28;20242;-72
2023/12/22 08:54:51;;;;;;;19.92;4.70;;;6.40;99.90;;;;;;5050797;28;20203;-71
2023/12/22 08:57:19;;;;;;;20.73;5.95;;;6.40;99.90;;;;;;5044714;28;20300;-75
2023/12/22 08:59:46;;;;;;;26.38;5.07;;;6.40;99.90;;;;;;5041145;28;20200;-74
2023/12/22 09:02:13;;;;;;;16.70;4.70;;;6.50;99.90;;;;;;5038149;28;20197;-74
2023/12/22 09:04:40;;;;;;;18.55;4.57;;;6.60;99.90;;;;;;5046965;28;20648;-72
2023/12/22 09:07:09;;;;;;;17.45;5.28;;;6.60;99.90;;;;;;5051205;28;20635;-74
2023/12/22 09:09:36;;;;;;;19.50;3.92;;;6.70;99.90;;;;;;5036506;28;20208;-70
2023/12/22 09:12:05;;;;;;;17.92;6.00;;;6.70;99.90;;;;;;5047167;28;20546;-71
2023/12/22 09:14:32;;;;;;;14.07;3.83;;;6.70;99.90;;;;;;5049344;28;20203;-74
2023/12/22 09:16:59;;;;;;;14.40;2.80;;;6.60;99.90;;;;;;5048562;28;20221;-73
2023/12/22 09:19:26;;;;;;;12.07;2.33;;;6.60;99.90;;;;;;5048915;28;20193;-75
2023/12/22 09:21:53;;;;;;;16.83;3.08;;;6.50;99.90;;;;;;5050076;28;20203;-71
2023/12/22 09:24:20;;;;;;;14.90;3.00;;;6.60;99.90;;;;;;5049205;28;20199;-70
2023/12/22 09:26:47;;;;;;;7.93;2.50;;;6.60;99.90;;;;;;5044118;28;20216;-72
2023/12/22 09:29:16;;;;;;;5.57;2.92;;;6.60;99.90;;;;;;5043365;28;20209;-74
2023/12/22 09:31:45;;;;;;;8.27;2.10;;;6.60;99.90;;;;;;5052426;28;20235;-73
2023/12/22 09:34:11;;;;;;;9.68;2.35;;;6.50;99.90;;;;;;5041354;28;20574;-71
2023/12/22 09:36:39;;;;;;;8.45;2.85;;;6.60;99.90;;;;;;5050319;28;20228;-70
2023/12/22 09:39:06;;;;;;;5.70;2.42;;;6.60;99.90;;;;;;5040441;28;20704;-72
2023/12/22 09:41:33;;;;;;;9.90;3.00;;;6.60;99.90;;;;;;5049561;28;20200;-71
2023/12/22 09:44:03;;;;;;;8.68;3.45;;;6.60;99.90;;;;;;5050118;28;20196;-75
2023/12/22 09:46:32;;;;;;;14.15;3.97;;;6.60;99.90;;;;;;5045853;28;20220;-73
2023/12/22 09:49:01;;;;;;;12.77;3.80;;;6.60;99.90;;;;;;5044655;28;20451;-75
2023/12/22 09:51:29;;;;;;;14.13;2.90;;;6.70;99.90;;;;;;5037664;28;20295;-76
2023/12/22 09:53:58;;;;;;;10.15;3.03;;;6.80;99.90;;;;;;5047899;28;20193;-76
2023/12/22 09:56:27;;;;;;;11.52;3.00;;;6.80;99.90;;;;;;5047379;28;20224;-76
2023/12/22 09:58:56;;;;;;;13.02;2.72;;;6.80;99.90;;;;;;5043913;28;20208;-75
2023/12/22 10:01:24;;;;;;;9.00;2.22;;;6.80;99.90;;;;;;5048674;28;20599;-77
2023/12/22 10:03:53;;;;;;;13.90;3.75;;;6.80;99.90;;;;;;5041203;28;20212;-75
2023/12/22 10:06:20;;;;;;;11.20;2.92;;;6.70;99.90;;;;;;5055269;28;20196;-76
2023/12/22 10:08:51;;;;;;;16.38;2.65;;;6.70;99.90;;;;;;5033728;28;20216;-75
2023/12/22 10:11:20;;;;;;;17.40;4.53;;;6.70;99.90;;;;;;5041331;28;20635;-76
2023/12/22 10:13:47;;;;;;;14.65;3.55;;;6.70;99.90;;;;;;5033660;28;20204;-76
2023/12/22 10:16:15;;;;;;;15.35;4.65;;;6.60;99.90;;;;;;5042471;28;20199;-75
2023/12/22 10:18:42;;;;;;;15.32;3.40;;;6.60;99.90;;;;;;5034754;28;20197;-74
2023/12/22 10:21:10;;;;;;;15.60;2.92;;;6.50;99.90;;;;;;5032646;28;20224;-77
2023/12/22 10:23:37;;;;;;;17.45;3.13;;;6.40;99.90;;;;;;5035913;28;20292;-72
2023/12/22 10:26:05;;;;;;;12.90;4.78;;;6.40;99.90;;;;;;5033454;28;20200;-73
2023/12/22 10:28:31;;;;;;;10.85;2.88;;;6.30;99.90;;;;;;5042173;28;20572;-76
2023/12/22 10:31:03;;;;;;;10.27;4.20;;;6.30;99.90;;;;;;5036268;28;20247;-75
2023/12/22 10:33:31;;;;;;;11.45;3.53;;;6.30;99.90;;;;;;5033422;28;20204;-74
2023/12/22 10:35:59;;;;;;;15.48;6.00;;;6.40;99.90;;;;;;5043379;28;20207;-75
2023/12/22 10:38:28;;;;;;;8.88;3.45;;;6.40;99.90;;;;;;5042961;28;20256;-73
2023/12/22 10:40:56;;;;;;;10.00;3.70;;;6.50;99.90;;;;;;5044220;28;20207;-74
2023/12/22 10:43:23;;;;;;;8.35;4.15;;;6.50;99.90;;;;;;5046738;28;20282;-75
2023/12/22 10:45:53;;;;;;;14.55;4.38;;;6.50;99.90;;;;;;5052605;28;20199;-76
2023/12/22 10:48:20;;;;;;;11.55;4.20;;;6.50;99.90;;;;;;5046678;28;20223;-75
2023/12/22 10:50:48;;;;;;;10.23;3.35;;;6.50;99.90;;;;;;5038535;28;20246;-74
2023/12/22 10:53:16;;;;;;;14.00;2.83;;;6.40;99.90;;;;;;5040261;28;20288;-75
2023/12/22 10:55:50;;;;;;;12.55;5.07;;;6.40;99.90;;;;;;5051010;28;20208;-74
2023/12/22 10:58:17;;;;;;;15.80;4.38;;;6.30;99.90;;;;;;5048729;28;20611;-74
2023/12/22 11:00:46;;;;;;;12.43;3.15;;;6.30;99.90;;;;;;5046039;28;20250;-75
2023/12/22 11:03:17;;;;;;;10.88;3.75;;;6.40;99.90;;;;;;5047128;28;20197;-73
2023/12/22 11:05:47;;;;;;;4.82;1.55;;;6.40;99.90;;;;;;5049229;28;20273;-75
2023/12/22 11:08:15;;;;;;;6.32;1.85;;;6.60;99.90;;;;;;5049029;28;20571;-75
2023/12/22 11:10:45;;;;;;;5.57;2.33;;;6.70;99.90;;;;;;5044374;28;20196;-75
2023/12/22 11:13:13;;;;;;;8.95;2.33;;;6.80;99.90;;;;;;5042405;28;20193;-76
2023/12/22 11:15:41;;;;;;;6.15;2.47;;;6.80;99.90;;;;;;5040512;28;20203;-74
2023/12/22 11:18:10;;;;;;;6.38;2.50;;;6.90;99.90;;;;;;5046652;28;20311;-76
2023/12/22 11:20:39;;;;;;;11.32;3.75;;;6.90;99.90;;;;;;5051752;28;20200;-74
2023/12/22 11:23:07;;;;;;;8.10;2.67;;;6.90;99.90;;;;;;5040245;28;20655;-75
2023/12/22 11:25:35;;;;;;;14.77;2.85;;;7.00;99.90;;;;;;5046910;28;20266;-75
2023/12/22 11:28:06;;;;;;;12.10;2.25;;;7.00;99.90;;;;;;5044465;28;20251;-75
2023/12/22 11:30:35;;;;;;;20.40;4.13;;;7.10;99.90;;;;;;5049750;28;20314;-74
2023/12/22 11:33:03;;;;;;;8.75;2.90;;;7.10;99.90;;;;;;5057105;28;20196;-74
2023/12/22 11:35:31;;;;;;;10.27;3.78;;;7.10;99.90;;;;;;5044665;28;20207;-76
2023/12/22 11:38:01;;;;;;;9.35;2.33;;;7.10;99.90;;;;;;5051846;28;20219;-73
2023/12/22 11:40:28;;;;;;;12.90;4.00;;;7.10;99.90;;;;;;5035823;28;20607;-74
2023/12/22 11:42:56;;;;;;;13.63;2.53;;;7.10;99.90;;;;;;5055221;28;20291;-74
2023/12/22 11:45:24;;;;;;;9.80;3.83;;;7.20;99.90;;;;;;5044218;28;20189;-75
2023/12/22 11:47:51;;;;;;;11.00;3.05;;;7.20;99.90;;;;;;5048674;28;20216;-75
2023/12/22 11:50:30;;;;;;;16.02;4.00;;;7.30;99.90;;;;;;5045186;28;20644;-74
2023/12/22 11:52:57;;;;;;;8.15;2.95;;;7.40;99.90;;;;;;5053686;28;20232;-76
2023/12/22 11:55:57;;;;;;;9.05;2.97;;;7.40;99.90;;;;;;5037178;28;20243;-76
2023/12/22 11:58:37;;;;;;;13.10;3.15;;;7.50;99.90;;;;;;5049378;28;20224;-74
2023/12/22 12:01:07;;;;;;;10.52;3.58;;;7.50;99.90;;;;;;5056936;28;20195;-74
2023/12/22 12:03:38;;;;;;;7.40;3.45;;;7.60;99.90;;;;;;5040342;28;20204;-75
2023/12/22 12:06:31;;;;;;;12.25;4.07;;;7.60;99.90;;;;;;5038625;28;20315;-75
2023/12/22 12:08:59;;;;;;;8.60;2.60;;;7.60;99.90;;;;;;5039967;28;20221;-73
2023/12/22 12:12:04;;;;;;;10.40;3.90;;;7.70;99.90;;;;;;5052067;28;20219;-74
2023/12/22 12:14:34;;;;;;;12.63;2.80;;;7.70;99.90;;;;;;5044399;28;20200;-76
2023/12/22 12:17:08;;;;;;;13.43;3.58;;;7.60;99.90;;;;;;5035916;28;20278;-74
2023/12/22 12:19:35;;;;;;;12.00;3.90;;;7.60;99.90;;;;;;5036696;28;20613;-76
2023/12/22 12:22:04;;;;;;;13.07;3.22;;;7.70;99.90;;;;;;5042685;28;20199;-75
2023/12/22 12:24:32;;;;;;;13.95;3.13;;;7.60;99.90;;;;;;5051310;28;20196;-74
2023/12/22 12:26:58;;;;;;;15.55;3.47;;;7.60;99.90;;;;;;5049493;28;20364;-73
2023/12/22 12:29:26;;;;;;;13.38;4.00;;;7.60;99.90;;;;;;5039937;28;20324;-74
2023/12/22 12:31:53;;;;;;;10.95;4.28;;;7.70;99.90;;;;;;5052243;28;20196;-75
2023/12/22 12:34:23;;;;;;;9.35;3.58;;;7.70;99.90;;;;;;5040163;28;20193;-76
2023/12/22 12:36:51;;;;;;;10.02;3.90;;;7.80;99.90;;;;;;5045704;28;20224;-74
2023/12/22 12:39:25;;;;;;;11.77;3.88;;;7.80;99.90;;;;;;5045996;28;20199;-74
2023/12/22 12:41:56;;;;;;;10.80;3.40;;;7.70;99.90;;;;;;5049633;28;20212;-74
2023/12/22 12:44:24;;;;;;;13.88;3.30;;;7.80;99.90;;;;;;5046339;28;20192;-76
2023/12/22 12:46:51;;;;;;;10.10;5.43;;;7.80;99.90;;;;;;5052503;28;20276;-74
2023/12/22 12:49:26;;;;;;;7.85;3.38;;;7.80;99.90;;;;;;5044240;28;20556;-76
2023/12/22 12:51:54;;;;;;;10.80;3.42;;;7.90;99.90;;;;;;5046212;28;20537;-76
2023/12/22 12:54:21;;;;;;;14.15;5.80;;;7.80;99.90;;;;;;5047724;28;20201;-75
2023/12/22 12:56:48;;;;;;;13.70;3.78;;;7.80;99.90;;;;;;5043953;28;20241;-76
2023/12/22 12:59:17;;;;;;;12.93;4.32;;;7.70;99.90;;;;;;5038556;28;20267;-73
2023/12/22 13:01:45;;;;;;;15.48;3.63;;;7.80;99.90;;;;;;5041625;28;20712;-77
2023/12/22 13:04:13;;;;;;;16.95;3.60;;;7.80;99.90;;;;;;5049397;28;20281;-75
2023/12/22 13:06:51;;;;;;;10.45;3.00;;;7.80;99.90;;;;;;5053054;28;20242;-75
2023/12/22 13:09:19;;;;;;;11.60;3.80;;;7.80;99.90;;;;;;5049296;28;20219;-76
2023/12/22 13:11:47;;;;;;;9.80;3.90;;;7.80;99.90;;;;;;5044030;28;20200;-76
2023/12/22 13:14:24;;;;;;;10.32;3.30;;;7.80;99.90;;;;;;5046717;28;20196;-75
2023/12/22 13:16:53;;;;;;;14.13;4.13;;;7.90;99.90;;;;;;5049287;28;20292;-75
2023/12/22 13:19:21;;;;;;;6.55;2.30;;;7.80;99.90;;;;;;5044063;28;20193;-75
2023/12/22 13:21:48;;;;;;;16.85;4.03;;;7.90;99.90;;;;;;5041707;28;20192;-74
2023/12/22 13:24:17;;;;;;;25.05;5.25;;;7.90;99.90;;;;;;5041434;28;20584;-75
2023/12/22 13:26:45;;;;;;;8.13;3.17;;;7.90;99.90;;;;;;5047701;28;20233;-76